sensor_id;sensor_type;location;lat;lon;timestamp;P1;durP1;ratioP1;P2;durP2;ratioP2
4049;SDS011;2039;50.894;6.888;2023-11-19T00:01:48;33.60;;;5.32;;
4049;SDS011;2039;50.894;6.888;2023-11-19T00:04:14;34.10;;;6.37;;
4049;SDS011;2039;50.894;6.888;2023-11-19T00:06:40;32.27;;;5.77;;
4049;SDS011;2039;50.894;6.888;2023-11-19T00:09:06;33.17;;;6.10;;
4049;SDS011;2039;50.894;6.888;2023-11-19T00:11:33;32.50;;;6.35;;
4049;SDS011;2039;50.894;6.888;2023-11-19T00:13:58;32.77;;;6.63;;
4049;SDS011;2039;50.894;6.888;2023-11-19T00:16:24;33.80;;;6.97;;
4049;SDS011;2039;50.894;6.888;2023-11-19T00:18:50;34.38;;;6.63;;
4049;SDS011;2039;50.894;6.888;2023-11-19T00:21:16;33.20;;;5.97;;
4049;SDS011;2039;50.894;6.888;2023-11-19T00:23:42;34.60;;;8.17;;
4049;SDS011;2039;50.894;6.888;2023-11-19T00:26:07;33.97;;;6.37;;
4049;SDS011;2039;50.894;6.888;2023-11-19T00:28:33;33.77;;;7.40;;
4049;SDS011;2039;50.894;6.888;2023-11-19T00:30:59;34.80;;;7.27;;
4049;SDS011;2039;50.894;6.888;2023-11-19T00:33:24;34.07;;;6.77;;
4049;SDS011;2039;50.894;6.888;2023-11-19T00:35:50;35.70;;;6.43;;
4049;SDS011;2039;50.894;6.888;2023-11-19T00:38:16;33.47;;;6.40;;
4049;SDS011;2039;50.894;6.888;2023-11-19T00:40:41;34.70;;;6.20;;
4049;SDS011;2039;50.894;6.888;2023-11-19T00:43:07;33.90;;;6.37;;
4049;SDS011;2039;50.894;6.888;2023-11-19T00:45:33;34.03;;;6.50;;
4049;SDS011;2039;50.894;6.888;2023-11-19T00:47:59;33.77;;;6.60;;
4049;SDS011;2039;50.894;6.888;2023-11-19T00:50:25;35.40;;;7.03;;
4049;SDS011;2039;50.894;6.888;2023-11-19T00:52:50;34.10;;;6.20;;
4049;SDS011;2039;50.894;6.888;2023-11-19T00:55:16;35.03;;;6.43;;
4049;SDS011;2039;50.894;6.888;2023-11-19T00:57:42;33.78;;;6.22;;
4049;SDS011;2039;50.894;6.888;2023-11-19T01:00:08;34.80;;;5.53;;
4049;SDS011;2039;50.894;6.888;2023-11-19T01:02:47;33.88;;;6.60;;
4049;SDS011;2039;50.894;6.888;2023-11-19T01:05:14;35.92;;;6.32;;
4049;SDS011;2039;50.894;6.888;2023-11-19T01:07:40;34.43;;;7.17;;
4049;SDS011;2039;50.894;6.888;2023-11-19T01:10:06;35.30;;;6.33;;
4049;SDS011;2039;50.894;6.888;2023-11-19T01:12:33;33.80;;;6.45;;
4049;SDS011;2039;50.894;6.888;2023-11-19T01:15:02;34.95;;;5.43;;
4049;SDS011;2039;50.894;6.888;2023-11-19T01:17:29;34.58;;;6.80;;
4049;SDS011;2039;50.894;6.888;2023-11-19T01:19:56;33.80;;;6.35;;
4049;SDS011;2039;50.894;6.888;2023-11-19T01:22:22;33.80;;;6.27;;
4049;SDS011;2039;50.894;6.888;2023-11-19T01:24:48;36.00;;;5.10;;
4049;SDS011;2039;50.894;6.888;2023-11-19T01:27:14;34.10;;;5.60;;
4049;SDS011;2039;50.894;6.888;2023-11-19T01:29:39;32.63;;;4.93;;
4049;SDS011;2039;50.894;6.888;2023-11-19T01:32:05;33.58;;;5.60;;
4049;SDS011;2039;50.894;6.888;2023-11-19T01:34:31;33.43;;;5.50;;
4049;SDS011;2039;50.894;6.888;2023-11-19T01:36:57;36.00;;;5.13;;
4049;SDS011;2039;50.894;6.888;2023-11-19T01:39:22;34.10;;;5.37;;
4049;SDS011;2039;50.894;6.888;2023-11-19T01:41:48;33.23;;;4.93;;
4049;SDS011;2039;50.894;6.888;2023-11-19T01:44:14;33.57;;;6.03;;
4049;SDS011;2039;50.894;6.888;2023-11-19T01:46:43;33.37;;;4.40;;
4049;SDS011;2039;50.894;6.888;2023-11-19T01:49:25;34.22;;;6.07;;
4049;SDS011;2039;50.894;6.888;2023-11-19T01:51:51;35.70;;;5.13;;
4049;SDS011;2039;50.894;6.888;2023-11-19T01:54:17;33.80;;;6.10;;
4049;SDS011;2039;50.894;6.888;2023-11-19T01:56:42;33.10;;;5.60;;
4049;SDS011;2039;50.894;6.888;2023-11-19T01:59:09;33.35;;;4.65;;
4049;SDS011;2039;50.894;6.888;2023-11-19T02:01:38;34.60;;;4.95;;
4049;SDS011;2039;50.894;6.888;2023-11-19T02:04:05;34.35;;;4.85;;
4049;SDS011;2039;50.894;6.888;2023-11-19T02:06:32;33.83;;;5.28;;
4049;SDS011;2039;50.894;6.888;2023-11-19T02:08:59;33.35;;;4.95;;
4049;SDS011;2039;50.894;6.888;2023-11-19T02:11:25;33.53;;;4.32;;
4049;SDS011;2039;50.894;6.888;2023-11-19T02:13:55;34.08;;;3.88;;
4049;SDS011;2039;50.894;6.888;2023-11-19T02:16:24;37.40;;;4.95;;
4049;SDS011;2039;50.894;6.888;2023-11-19T02:18:49;34.10;;;4.33;;
4049;SDS011;2039;50.894;6.888;2023-11-19T02:21:15;36.77;;;4.97;;
4049;SDS011;2039;50.894;6.888;2023-11-19T02:23:42;37.20;;;3.95;;
4049;SDS011;2039;50.894;6.888;2023-11-19T02:28:56;37.42;;;3.30;;
4049;SDS011;2039;50.894;6.888;2023-11-19T02:31:21;35.70;;;4.43;;
4049;SDS011;2039;50.894;6.888;2023-11-19T02:33:48;32.75;;;3.97;;
4049;SDS011;2039;50.894;6.888;2023-11-19T02:36:15;34.08;;;4.30;;
4049;SDS011;2039;50.894;6.888;2023-11-19T02:38:41;31.48;;;4.30;;
4049;SDS011;2039;50.894;6.888;2023-11-19T02:41:07;38.13;;;4.03;;
4049;SDS011;2039;50.894;6.888;2023-11-19T02:43:34;31.90;;;4.10;;
4049;SDS011;2039;50.894;6.888;2023-11-19T02:46:05;33.70;;;4.07;;
4049;SDS011;2039;50.894;6.888;2023-11-19T02:48:37;34.50;;;4.60;;
4049;SDS011;2039;50.894;6.888;2023-11-19T02:51:03;33.00;;;3.97;;
4049;SDS011;2039;50.894;6.888;2023-11-19T02:53:32;33.05;;;4.38;;
4049;SDS011;2039;50.894;6.888;2023-11-19T02:55:58;33.63;;;3.88;;
4049;SDS011;2039;50.894;6.888;2023-11-19T02:58:31;33.85;;;3.88;;
4049;SDS011;2039;50.894;6.888;2023-11-19T03:00:57;32.27;;;4.07;;
4049;SDS011;2039;50.894;6.888;2023-11-19T03:03:26;32.33;;;4.07;;
4049;SDS011;2039;50.894;6.888;2023-11-19T03:06:12;33.40;;;3.60;;
4049;SDS011;2039;50.894;6.888;2023-11-19T03:08:38;36.87;;;4.20;;
4049;SDS011;2039;50.894;6.888;2023-11-19T03:11:04;30.00;;;2.87;;
4049;SDS011;2039;50.894;6.888;2023-11-19T03:13:30;36.13;;;4.07;;
4049;SDS011;2039;50.894;6.888;2023-11-19T03:15:55;33.23;;;3.20;;
4049;SDS011;2039;50.894;6.888;2023-11-19T03:18:21;31.83;;;3.93;;
4049;SDS011;2039;50.894;6.888;2023-11-19T03:20:47;30.77;;;3.23;;
4049;SDS011;2039;50.894;6.888;2023-11-19T03:23:13;32.27;;;2.93;;
4049;SDS011;2039;50.894;6.888;2023-11-19T03:25:38;28.70;;;3.10;;
4049;SDS011;2039;50.894;6.888;2023-11-19T03:28:04;29.57;;;3.40;;
4049;SDS011;2039;50.894;6.888;2023-11-19T03:30:30;29.40;;;3.10;;
4049;SDS011;2039;50.894;6.888;2023-11-19T03:32:56;32.60;;;2.95;;
4049;SDS011;2039;50.894;6.888;2023-11-19T03:35:22;31.02;;;3.00;;
4049;SDS011;2039;50.894;6.888;2023-11-19T03:37:49;33.33;;;3.50;;
4049;SDS011;2039;50.894;6.888;2023-11-19T03:40:16;31.20;;;3.00;;
4049;SDS011;2039;50.894;6.888;2023-11-19T03:42:42;33.70;;;3.55;;
4049;SDS011;2039;50.894;6.888;2023-11-19T03:45:08;34.70;;;3.40;;
4049;SDS011;2039;50.894;6.888;2023-11-19T03:47:34;33.20;;;3.17;;
4049;SDS011;2039;50.894;6.888;2023-11-19T03:50:00;30.50;;;3.00;;
4049;SDS011;2039;50.894;6.888;2023-11-19T03:52:27;33.92;;;3.47;;
4049;SDS011;2039;50.894;6.888;2023-11-19T03:54:53;30.50;;;3.30;;
4049;SDS011;2039;50.894;6.888;2023-11-19T03:57:20;29.65;;;2.78;;
4049;SDS011;2039;50.894;6.888;2023-11-19T03:59:46;31.75;;;3.03;;
4049;SDS011;2039;50.894;6.888;2023-11-19T04:02:12;30.17;;;3.10;;
4049;SDS011;2039;50.894;6.888;2023-11-19T04:04:37;37.40;;;3.60;;
4049;SDS011;2039;50.894;6.888;2023-11-19T04:07:09;33.55;;;3.20;;
4049;SDS011;2039;50.894;6.888;2023-11-19T04:09:34;28.83;;;2.25;;
4049;SDS011;2039;50.894;6.888;2023-11-19T04:12:02;33.80;;;3.05;;
4049;SDS011;2039;50.894;6.888;2023-11-19T04:14:29;29.60;;;2.50;;
4049;SDS011;2039;50.894;6.888;2023-11-19T04:16:55;29.80;;;3.00;;
4049;SDS011;2039;50.894;6.888;2023-11-19T04:19:20;29.17;;;2.33;;
4049;SDS011;2039;50.894;6.888;2023-11-19T04:21:47;30.58;;;2.10;;
4049;SDS011;2039;50.894;6.888;2023-11-19T04:24:17;30.27;;;3.15;;
4049;SDS011;2039;50.894;6.888;2023-11-19T04:26:43;29.40;;;2.40;;
4049;SDS011;2039;50.894;6.888;2023-11-19T04:29:13;32.33;;;3.03;;
4049;SDS011;2039;50.894;6.888;2023-11-19T04:31:42;33.72;;;3.20;;
4049;SDS011;2039;50.894;6.888;2023-11-19T04:34:12;35.33;;;4.53;;
4049;SDS011;2039;50.894;6.888;2023-11-19T04:36:38;29.73;;;3.00;;
4049;SDS011;2039;50.894;6.888;2023-11-19T04:39:04;33.03;;;3.53;;
4049;SDS011;2039;50.894;6.888;2023-11-19T04:41:49;34.10;;;2.80;;
4049;SDS011;2039;50.894;6.888;2023-11-19T04:44:18;33.55;;;2.67;;
4049;SDS011;2039;50.894;6.888;2023-11-19T04:46:44;32.13;;;3.43;;
4049;SDS011;2039;50.894;6.888;2023-11-19T04:49:10;28.42;;;2.33;;
4049;SDS011;2039;50.894;6.888;2023-11-19T04:51:42;30.42;;;2.80;;
4049;SDS011;2039;50.894;6.888;2023-11-19T04:54:18;30.08;;;2.72;;
4049;SDS011;2039;50.894;6.888;2023-11-19T04:56:47;35.05;;;2.70;;
4049;SDS011;2039;50.894;6.888;2023-11-19T04:59:13;28.13;;;3.00;;
4049;SDS011;2039;50.894;6.888;2023-11-19T05:01:39;27.90;;;2.33;;
4049;SDS011;2039;50.894;6.888;2023-11-19T05:04:05;32.20;;;3.27;;
4049;SDS011;2039;50.894;6.888;2023-11-19T05:06:32;31.08;;;2.55;;
4049;SDS011;2039;50.894;6.888;2023-11-19T05:08:59;29.47;;;2.70;;
4049;SDS011;2039;50.894;6.888;2023-11-19T05:11:33;30.98;;;3.03;;
4049;SDS011;2039;50.894;6.888;2023-11-19T05:13:59;29.02;;;2.78;;
4049;SDS011;2039;50.894;6.888;2023-11-19T05:16:26;29.05;;;2.78;;
4049;SDS011;2039;50.894;6.888;2023-11-19T05:18:52;33.37;;;2.80;;
4049;SDS011;2039;50.894;6.888;2023-11-19T05:21:18;29.90;;;2.73;;
4049;SDS011;2039;50.894;6.888;2023-11-19T05:23:43;27.07;;;3.10;;
4049;SDS011;2039;50.894;6.888;2023-11-19T05:26:09;28.25;;;2.53;;
4049;SDS011;2039;50.894;6.888;2023-11-19T05:28:42;30.15;;;2.80;;
4049;SDS011;2039;50.894;6.888;2023-11-19T05:31:07;29.97;;;3.33;;
4049;SDS011;2039;50.894;6.888;2023-11-19T05:33:33;30.40;;;3.27;;
4049;SDS011;2039;50.894;6.888;2023-11-19T05:36:01;31.80;;;3.03;;
4049;SDS011;2039;50.894;6.888;2023-11-19T05:38:28;30.27;;;2.85;;
4049;SDS011;2039;50.894;6.888;2023-11-19T05:40:54;27.08;;;2.50;;
4049;SDS011;2039;50.894;6.888;2023-11-19T05:43:20;31.83;;;3.10;;
4049;SDS011;2039;50.894;6.888;2023-11-19T05:45:46;27.33;;;2.03;;
4049;SDS011;2039;50.894;6.888;2023-11-19T05:48:12;31.07;;;3.80;;
4049;SDS011;2039;50.894;6.888;2023-11-19T05:50:38;27.63;;;3.17;;
4049;SDS011;2039;50.894;6.888;2023-11-19T05:53:04;36.05;;;3.97;;
4049;SDS011;2039;50.894;6.888;2023-11-19T05:55:35;32.97;;;4.53;;
4049;SDS011;2039;50.894;6.888;2023-11-19T05:58:10;26.65;;;2.25;;
4049;SDS011;2039;50.894;6.888;2023-11-19T06:00:37;29.45;;;3.13;;
4049;SDS011;2039;50.894;6.888;2023-11-19T06:03:04;30.42;;;3.53;;
4049;SDS011;2039;50.894;6.888;2023-11-19T06:05:30;27.60;;;3.20;;
4049;SDS011;2039;50.894;6.888;2023-11-19T06:07:55;30.30;;;2.90;;
4049;SDS011;2039;50.894;6.888;2023-11-19T06:10:22;30.27;;;3.13;;
4049;SDS011;2039;50.894;6.888;2023-11-19T06:12:54;41.15;;;3.28;;
4049;SDS011;2039;50.894;6.888;2023-11-19T06:15:22;29.13;;;3.20;;
4049;SDS011;2039;50.894;6.888;2023-11-19T06:17:48;30.20;;;3.27;;
4049;SDS011;2039;50.894;6.888;2023-11-19T06:20:13;36.27;;;3.70;;
4049;SDS011;2039;50.894;6.888;2023-11-19T06:22:39;30.97;;;4.33;;
4049;SDS011;2039;50.894;6.888;2023-11-19T06:25:08;46.00;;;3.80;;
4049;SDS011;2039;50.894;6.888;2023-11-19T06:27:34;27.77;;;2.60;;
4049;SDS011;2039;50.894;6.888;2023-11-19T06:30:00;30.70;;;3.20;;
4049;SDS011;2039;50.894;6.888;2023-11-19T06:32:29;28.17;;;2.63;;
4049;SDS011;2039;50.894;6.888;2023-11-19T06:34:54;25.35;;;2.70;;
4049;SDS011;2039;50.894;6.888;2023-11-19T06:37:21;41.15;;;4.05;;
4049;SDS011;2039;50.894;6.888;2023-11-19T06:39:47;26.90;;;2.73;;
4049;SDS011;2039;50.894;6.888;2023-11-19T06:42:15;28.80;;;4.07;;
4049;SDS011;2039;50.894;6.888;2023-11-19T06:44:40;40.55;;;3.50;;
4049;SDS011;2039;50.894;6.888;2023-11-19T06:47:09;35.30;;;3.15;;
4049;SDS011;2039;50.894;6.888;2023-11-19T06:49:35;31.00;;;3.43;;
4049;SDS011;2039;50.894;6.888;2023-11-19T06:52:00;38.00;;;3.87;;
4049;SDS011;2039;50.894;6.888;2023-11-19T06:54:26;26.97;;;3.10;;
4049;SDS011;2039;50.894;6.888;2023-11-19T06:56:52;30.97;;;3.20;;
4049;SDS011;2039;50.894;6.888;2023-11-19T06:59:17;24.73;;;3.27;;
4049;SDS011;2039;50.894;6.888;2023-11-19T07:01:44;30.10;;;2.83;;
4049;SDS011;2039;50.894;6.888;2023-11-19T07:04:12;44.20;;;4.27;;
4049;SDS011;2039;50.894;6.888;2023-11-19T07:06:38;32.03;;;3.95;;
4049;SDS011;2039;50.894;6.888;2023-11-19T07:09:07;27.63;;;2.80;;
4049;SDS011;2039;50.894;6.888;2023-11-19T07:11:39;28.65;;;2.75;;
4049;SDS011;2039;50.894;6.888;2023-11-19T07:14:06;28.75;;;2.65;;
4049;SDS011;2039;50.894;6.888;2023-11-19T07:16:33;31.10;;;3.58;;
4049;SDS011;2039;50.894;6.888;2023-11-19T07:19:04;29.52;;;3.28;;
4049;SDS011;2039;50.894;6.888;2023-11-19T07:21:31;30.83;;;3.00;;
4049;SDS011;2039;50.894;6.888;2023-11-19T07:23:58;34.92;;;3.03;;
4049;SDS011;2039;50.894;6.888;2023-11-19T07:26:25;33.28;;;3.10;;
4049;SDS011;2039;50.894;6.888;2023-11-19T07:28:51;28.00;;;3.08;;
4049;SDS011;2039;50.894;6.888;2023-11-19T07:31:17;31.37;;;3.30;;
4049;SDS011;2039;50.894;6.888;2023-11-19T07:33:44;30.30;;;2.75;;
4049;SDS011;2039;50.894;6.888;2023-11-19T07:36:11;27.60;;;2.75;;
4049;SDS011;2039;50.894;6.888;2023-11-19T07:38:38;27.33;;;2.35;;
4049;SDS011;2039;50.894;6.888;2023-11-19T07:41:04;25.57;;;3.07;;
4049;SDS011;2039;50.894;6.888;2023-11-19T07:43:30;29.77;;;2.85;;
4049;SDS011;2039;50.894;6.888;2023-11-19T07:45:56;33.97;;;3.63;;
4049;SDS011;2039;50.894;6.888;2023-11-19T07:48:24;28.60;;;2.58;;
4049;SDS011;2039;50.894;6.888;2023-11-19T07:50:51;25.45;;;2.88;;
4049;SDS011;2039;50.894;6.888;2023-11-19T07:53:18;27.38;;;2.72;;
4049;SDS011;2039;50.894;6.888;2023-11-19T07:55:44;28.52;;;2.92;;
4049;SDS011;2039;50.894;6.888;2023-11-19T07:58:10;30.42;;;3.40;;
4049;SDS011;2039;50.894;6.888;2023-11-19T08:00:36;24.33;;;2.70;;
4049;SDS011;2039;50.894;6.888;2023-11-19T08:03:03;28.23;;;3.60;;
4049;SDS011;2039;50.894;6.888;2023-11-19T08:05:29;30.80;;;3.28;;
4049;SDS011;2039;50.894;6.888;2023-11-19T08:07:55;33.05;;;3.53;;
4049;SDS011;2039;50.894;6.888;2023-11-19T08:10:22;33.10;;;4.40;;
4049;SDS011;2039;50.894;6.888;2023-11-19T08:12:47;26.70;;;2.80;;
4049;SDS011;2039;50.894;6.888;2023-11-19T08:15:14;27.25;;;2.83;;
4049;SDS011;2039;50.894;6.888;2023-11-19T08:17:40;24.35;;;2.20;;
4049;SDS011;2039;50.894;6.888;2023-11-19T08:20:07;32.08;;;3.97;;
4049;SDS011;2039;50.894;6.888;2023-11-19T08:22:39;29.15;;;3.92;;
4049;SDS011;2039;50.894;6.888;2023-11-19T08:25:05;29.67;;;3.83;;
4049;SDS011;2039;50.894;6.888;2023-11-19T08:27:31;31.60;;;3.40;;
4049;SDS011;2039;50.894;6.888;2023-11-19T08:29:57;30.53;;;3.60;;
4049;SDS011;2039;50.894;6.888;2023-11-19T08:32:26;29.83;;;3.80;;
4049;SDS011;2039;50.894;6.888;2023-11-19T08:34:52;26.33;;;3.05;;
4049;SDS011;2039;50.894;6.888;2023-11-19T08:37:18;28.15;;;3.55;;
4049;SDS011;2039;50.894;6.888;2023-11-19T08:39:48;29.98;;;3.58;;
4049;SDS011;2039;50.894;6.888;2023-11-19T08:42:15;36.08;;;2.95;;
4049;SDS011;2039;50.894;6.888;2023-11-19T08:44:41;29.13;;;2.80;;
4049;SDS011;2039;50.894;6.888;2023-11-19T08:47:08;28.77;;;3.20;;
4049;SDS011;2039;50.894;6.888;2023-11-19T08:49:44;29.70;;;3.92;;
4049;SDS011;2039;50.894;6.888;2023-11-19T08:52:10;27.50;;;3.03;;
4049;SDS011;2039;50.894;6.888;2023-11-19T08:54:36;25.37;;;3.00;;
4049;SDS011;2039;50.894;6.888;2023-11-19T08:57:02;26.67;;;3.67;;
4049;SDS011;2039;50.894;6.888;2023-11-19T08:59:29;22.77;;;3.40;;
4049;SDS011;2039;50.894;6.888;2023-11-19T09:01:55;33.42;;;4.43;;
4049;SDS011;2039;50.894;6.888;2023-11-19T09:04:20;37.47;;;3.47;;
4049;SDS011;2039;50.894;6.888;2023-11-19T09:06:47;28.73;;;4.22;;
4049;SDS011;2039;50.894;6.888;2023-11-19T09:09:13;30.05;;;2.95;;
4049;SDS011;2039;50.894;6.888;2023-11-19T09:11:39;25.07;;;2.60;;
4049;SDS011;2039;50.894;6.888;2023-11-19T09:14:05;28.77;;;3.45;;
4049;SDS011;2039;50.894;6.888;2023-11-19T09:16:31;38.60;;;3.93;;
4049;SDS011;2039;50.894;6.888;2023-11-19T09:18:57;27.70;;;3.80;;
4049;SDS011;2039;50.894;6.888;2023-11-19T09:21:24;27.55;;;3.17;;
4049;SDS011;2039;50.894;6.888;2023-11-19T09:23:50;33.33;;;3.70;;
4049;SDS011;2039;50.894;6.888;2023-11-19T09:26:16;26.50;;;3.93;;
4049;SDS011;2039;50.894;6.888;2023-11-19T09:28:42;29.80;;;3.37;;
4049;SDS011;2039;50.894;6.888;2023-11-19T09:31:17;26.00;;;3.80;;
4049;SDS011;2039;50.894;6.888;2023-11-19T09:33:43;27.73;;;3.10;;
4049;SDS011;2039;50.894;6.888;2023-11-19T09:36:09;24.95;;;3.17;;
4049;SDS011;2039;50.894;6.888;2023-11-19T09:38:38;32.72;;;3.50;;
4049;SDS011;2039;50.894;6.888;2023-11-19T09:41:05;28.85;;;3.40;;
4049;SDS011;2039;50.894;6.888;2023-11-19T09:43:35;37.42;;;3.90;;
4049;SDS011;2039;50.894;6.888;2023-11-19T09:46:10;35.50;;;2.78;;
4049;SDS011;2039;50.894;6.888;2023-11-19T09:48:39;28.40;;;3.28;;
4049;SDS011;2039;50.894;6.888;2023-11-19T09:51:06;33.45;;;4.10;;
4049;SDS011;2039;50.894;6.888;2023-11-19T09:53:33;36.67;;;4.85;;
4049;SDS011;2039;50.894;6.888;2023-11-19T09:56:03;25.50;;;2.73;;
4049;SDS011;2039;50.894;6.888;2023-11-19T09:58:30;28.30;;;2.90;;
4049;SDS011;2039;50.894;6.888;2023-11-19T10:00:56;27.37;;;2.83;;
4049;SDS011;2039;50.894;6.888;2023-11-19T10:03:28;32.63;;;2.95;;
4049;SDS011;2039;50.894;6.888;2023-11-19T10:05:57;25.63;;;2.78;;
4049;SDS011;2039;50.894;6.888;2023-11-19T10:08:25;30.63;;;3.58;;
4049;SDS011;2039;50.894;6.888;2023-11-19T10:10:51;25.20;;;2.60;;
4049;SDS011;2039;50.894;6.888;2023-11-19T10:13:17;34.23;;;3.43;;
4049;SDS011;2039;50.894;6.888;2023-11-19T10:15:43;29.30;;;2.87;;
4049;SDS011;2039;50.894;6.888;2023-11-19T10:18:09;35.15;;;3.45;;
4049;SDS011;2039;50.894;6.888;2023-11-19T10:20:41;26.17;;;2.67;;
4049;SDS011;2039;50.894;6.888;2023-11-19T10:23:07;28.67;;;3.00;;
4049;SDS011;2039;50.894;6.888;2023-11-19T10:25:33;34.20;;;3.70;;
4049;SDS011;2039;50.894;6.888;2023-11-19T10:27:59;31.70;;;3.22;;
4049;SDS011;2039;50.894;6.888;2023-11-19T10:30:28;30.43;;;3.83;;
4049;SDS011;2039;50.894;6.888;2023-11-19T10:35:34;29.63;;;2.63;;
4049;SDS011;2039;50.894;6.888;2023-11-19T10:38:19;30.15;;;3.85;;
4049;SDS011;2039;50.894;6.888;2023-11-19T10:40:45;25.88;;;3.25;;
4049;SDS011;2039;50.894;6.888;2023-11-19T10:43:10;28.77;;;3.60;;
4049;SDS011;2039;50.894;6.888;2023-11-19T10:45:38;29.88;;;2.40;;
4049;SDS011;2039;50.894;6.888;2023-11-19T10:48:04;28.38;;;3.05;;
4049;SDS011;2039;50.894;6.888;2023-11-19T10:50:33;27.23;;;2.83;;
4049;SDS011;2039;50.894;6.888;2023-11-19T10:53:01;27.83;;;2.80;;
4049;SDS011;2039;50.894;6.888;2023-11-19T10:55:32;28.23;;;3.37;;
4049;SDS011;2039;50.894;6.888;2023-11-19T10:58:03;30.70;;;3.33;;
4049;SDS011;2039;50.894;6.888;2023-11-19T11:00:47;34.00;;;2.83;;
4049;SDS011;2039;50.894;6.888;2023-11-19T11:03:17;27.70;;;3.57;;
4049;SDS011;2039;50.894;6.888;2023-11-19T11:05:47;25.57;;;3.30;;
4049;SDS011;2039;50.894;6.888;2023-11-19T11:08:14;24.83;;;2.80;;
4049;SDS011;2039;50.894;6.888;2023-11-19T11:10:53;22.80;;;3.20;;
4049;SDS011;2039;50.894;6.888;2023-11-19T11:13:22;29.87;;;3.03;;
4049;SDS011;2039;50.894;6.888;2023-11-19T11:15:49;26.13;;;2.97;;
4049;SDS011;2039;50.894;6.888;2023-11-19T11:18:15;23.40;;;2.80;;
4049;SDS011;2039;50.894;6.888;2023-11-19T11:20:46;28.90;;;3.00;;
4049;SDS011;2039;50.894;6.888;2023-11-19T11:38:00;28.05;;;3.40;;
4049;SDS011;2039;50.894;6.888;2023-11-19T11:40:33;20.40;;;2.80;;
4049;SDS011;2039;50.894;6.888;2023-11-19T11:42:59;21.70;;;2.23;;
4049;SDS011;2039;50.894;6.888;2023-11-19T11:45:35;22.10;;;2.77;;
4049;SDS011;2039;50.894;6.888;2023-11-19T11:48:10;21.00;;;2.53;;
4049;SDS011;2039;50.894;6.888;2023-11-19T11:50:48;28.83;;;2.80;;
4049;SDS011;2039;50.894;6.888;2023-11-19T11:53:16;21.90;;;2.10;;
4049;SDS011;2039;50.894;6.888;2023-11-19T11:58:17;21.83;;;2.37;;
4049;SDS011;2039;50.894;6.888;2023-11-19T12:00:43;20.75;;;1.98;;
4049;SDS011;2039;50.894;6.888;2023-11-19T12:03:11;23.30;;;2.23;;
4049;SDS011;2039;50.894;6.888;2023-11-19T12:05:40;26.93;;;2.20;;
4049;SDS011;2039;50.894;6.888;2023-11-19T12:08:10;30.63;;;2.60;;
4049;SDS011;2039;50.894;6.888;2023-11-19T12:10:49;26.17;;;2.03;;
4049;SDS011;2039;50.894;6.888;2023-11-19T12:13:17;23.70;;;2.70;;
4049;SDS011;2039;50.894;6.888;2023-11-19T12:18:28;36.53;;;3.67;;
4049;SDS011;2039;50.894;6.888;2023-11-19T12:20:55;27.73;;;3.90;;
4049;SDS011;2039;50.894;6.888;2023-11-19T12:23:22;25.33;;;2.67;;
4049;SDS011;2039;50.894;6.888;2023-11-19T12:25:48;25.63;;;2.97;;
4049;SDS011;2039;50.894;6.888;2023-11-19T12:28:15;22.03;;;2.40;;
4049;SDS011;2039;50.894;6.888;2023-11-19T12:30:44;25.80;;;3.73;;
4049;SDS011;2039;50.894;6.888;2023-11-19T12:33:11;32.30;;;3.30;;
4049;SDS011;2039;50.894;6.888;2023-11-19T12:35:41;20.40;;;1.93;;
4049;SDS011;2039;50.894;6.888;2023-11-19T12:38:24;23.70;;;3.27;;
4049;SDS011;2039;50.894;6.888;2023-11-19T12:41:03;20.93;;;1.97;;
4049;SDS011;2039;50.894;6.888;2023-11-19T12:43:33;22.47;;;2.17;;
4049;SDS011;2039;50.894;6.888;2023-11-19T12:46:17;27.40;;;2.60;;
4049;SDS011;2039;50.894;6.888;2023-11-19T12:48:44;26.77;;;2.40;;
4049;SDS011;2039;50.894;6.888;2023-11-19T12:51:11;21.37;;;1.87;;
4049;SDS011;2039;50.894;6.888;2023-11-19T12:53:55;22.90;;;2.50;;
4049;SDS011;2039;50.894;6.888;2023-11-19T12:56:23;22.10;;;2.50;;
4049;SDS011;2039;50.894;6.888;2023-11-19T12:58:49;22.10;;;2.45;;
4049;SDS011;2039;50.894;6.888;2023-11-19T13:01:18;22.75;;;1.80;;
4049;SDS011;2039;50.894;6.888;2023-11-19T13:03:45;20.43;;;2.23;;
4049;SDS011;2039;50.894;6.888;2023-11-19T13:06:12;20.58;;;1.90;;
4049;SDS011;2039;50.894;6.888;2023-11-19T13:08:40;22.00;;;3.10;;
4049;SDS011;2039;50.894;6.888;2023-11-19T13:11:15;31.83;;;3.43;;
4049;SDS011;2039;50.894;6.888;2023-11-19T13:14:03;28.10;;;2.80;;
4049;SDS011;2039;50.894;6.888;2023-11-19T13:16:37;21.97;;;2.27;;
4049;SDS011;2039;50.894;6.888;2023-11-19T13:19:03;28.80;;;2.00;;
4049;SDS011;2039;50.894;6.888;2023-11-19T13:21:30;22.00;;;2.07;;
4049;SDS011;2039;50.894;6.888;2023-11-19T13:23:56;27.30;;;2.70;;
4049;SDS011;2039;50.894;6.888;2023-11-19T13:26:22;21.47;;;2.63;;
4049;SDS011;2039;50.894;6.888;2023-11-19T13:28:48;27.30;;;3.30;;
4049;SDS011;2039;50.894;6.888;2023-11-19T13:31:14;22.57;;;2.73;;
4049;SDS011;2039;50.894;6.888;2023-11-19T13:33:40;25.60;;;2.23;;
4049;SDS011;2039;50.894;6.888;2023-11-19T13:36:06;20.13;;;2.03;;
4049;SDS011;2039;50.894;6.888;2023-11-19T13:38:35;27.03;;;3.30;;
4049;SDS011;2039;50.894;6.888;2023-11-19T13:41:02;23.37;;;3.30;;
4049;SDS011;2039;50.894;6.888;2023-11-19T13:43:29;23.57;;;2.50;;
4049;SDS011;2039;50.894;6.888;2023-11-19T13:45:55;24.90;;;2.07;;
4049;SDS011;2039;50.894;6.888;2023-11-19T13:48:21;21.10;;;2.30;;
4049;SDS011;2039;50.894;6.888;2023-11-19T13:50:47;22.60;;;2.53;;
4049;SDS011;2039;50.894;6.888;2023-11-19T13:53:13;30.43;;;4.00;;
4049;SDS011;2039;50.894;6.888;2023-11-19T13:55:39;27.70;;;3.37;;
4049;SDS011;2039;50.894;6.888;2023-11-19T13:58:06;27.10;;;2.70;;
4049;SDS011;2039;50.894;6.888;2023-11-19T14:00:31;27.10;;;3.47;;
4049;SDS011;2039;50.894;6.888;2023-11-19T14:02:57;25.13;;;2.67;;
4049;SDS011;2039;50.894;6.888;2023-11-19T14:05:23;20.90;;;2.20;;
4049;SDS011;2039;50.894;6.888;2023-11-19T14:07:49;29.27;;;2.70;;
4049;SDS011;2039;50.894;6.888;2023-11-19T14:10:16;22.27;;;2.30;;
4049;SDS011;2039;50.894;6.888;2023-11-19T14:12:42;28.23;;;2.60;;
4049;SDS011;2039;50.894;6.888;2023-11-19T14:15:09;39.00;;;3.70;;
4049;SDS011;2039;50.894;6.888;2023-11-19T14:17:37;22.77;;;2.53;;
4049;SDS011;2039;50.894;6.888;2023-11-19T14:20:03;31.37;;;4.90;;
4049;SDS011;2039;50.894;6.888;2023-11-19T14:22:44;21.27;;;2.40;;
4049;SDS011;2039;50.894;6.888;2023-11-19T14:25:20;29.63;;;2.90;;
4049;SDS011;2039;50.894;6.888;2023-11-19T14:27:48;21.00;;;2.43;;
4049;SDS011;2039;50.894;6.888;2023-11-19T14:30:13;22.57;;;2.67;;
4049;SDS011;2039;50.894;6.888;2023-11-19T14:32:40;25.63;;;3.20;;
4049;SDS011;2039;50.894;6.888;2023-11-19T14:35:11;20.97;;;1.80;;
4049;SDS011;2039;50.894;6.888;2023-11-19T14:37:37;25.27;;;2.80;;
4049;SDS011;2039;50.894;6.888;2023-11-19T14:40:06;23.40;;;2.90;;
4049;SDS011;2039;50.894;6.888;2023-11-19T14:42:37;26.00;;;2.60;;
4049;SDS011;2039;50.894;6.888;2023-11-19T14:45:04;21.50;;;2.33;;
4049;SDS011;2039;50.894;6.888;2023-11-19T14:47:30;24.03;;;2.20;;
4049;SDS011;2039;50.894;6.888;2023-11-19T14:49:56;28.38;;;2.97;;
4049;SDS011;2039;50.894;6.888;2023-11-19T14:52:22;23.90;;;2.87;;
4049;SDS011;2039;50.894;6.888;2023-11-19T14:54:47;32.03;;;3.03;;
4049;SDS011;2039;50.894;6.888;2023-11-19T14:57:13;23.27;;;2.83;;
4049;SDS011;2039;50.894;6.888;2023-11-19T14:59:39;29.10;;;2.50;;
4049;SDS011;2039;50.894;6.888;2023-11-19T15:02:05;26.73;;;2.23;;
4049;SDS011;2039;50.894;6.888;2023-11-19T15:04:31;26.10;;;2.77;;
4049;SDS011;2039;50.894;6.888;2023-11-19T15:07:00;22.77;;;2.00;;
4049;SDS011;2039;50.894;6.888;2023-11-19T15:09:25;27.93;;;2.90;;
4049;SDS011;2039;50.894;6.888;2023-11-19T15:11:55;26.80;;;2.73;;
4049;SDS011;2039;50.894;6.888;2023-11-19T15:14:20;24.17;;;2.40;;
4049;SDS011;2039;50.894;6.888;2023-11-19T15:16:46;23.33;;;2.90;;
4049;SDS011;2039;50.894;6.888;2023-11-19T15:19:13;20.00;;;2.23;;
4049;SDS011;2039;50.894;6.888;2023-11-19T15:21:39;25.80;;;2.47;;
4049;SDS011;2039;50.894;6.888;2023-11-19T15:24:06;24.25;;;2.75;;
4049;SDS011;2039;50.894;6.888;2023-11-19T15:26:33;22.58;;;2.67;;
4049;SDS011;2039;50.894;6.888;2023-11-19T15:29:00;27.53;;;2.50;;